createdAt,value
2018-08-16T00:00:32.020Z,101398.94
2018-08-16T00:01:37.537Z,101393.75
2018-08-16T00:02:43.110Z,101392.72
2018-08-16T00:03:48.623Z,101396.98
2018-08-16T00:04:54.060Z,101393.02
2018-08-16T00:05:59.614Z,101394.22
2018-08-16T00:07:05.265Z,101389.13
2018-08-16T00:08:10.745Z,101392.55
2018-08-16T00:09:16.293Z,101388.36
2018-08-16T00:10:21.836Z,101387.96
2018-08-16T00:11:27.301Z,101391.49
2018-08-16T00:12:32.792Z,101383.70
2018-08-16T00:13:38.355Z,101389.03
2018-08-16T00:14:43.879Z,101384.37
2018-08-16T00:15:49.408Z,101388.80
2018-08-16T00:16:54.870Z,101388.27
2018-08-16T00:18:00.300Z,101386.44
2018-08-16T00:19:06.284Z,101385.27
2018-08-16T00:20:12.436Z,101387.97
2018-08-16T00:21:17.949Z,101386.20
2018-08-16T00:22:23.453Z,101392.16
2018-08-16T00:23:28.926Z,101387.97
2018-08-16T00:24:34.430Z,101383.97
2018-08-16T00:25:39.949Z,101385.20
2018-08-16T00:26:45.558Z,101389.09
2018-08-16T00:27:51.018Z,101392.30
2018-08-16T00:28:56.457Z,101386.97
2018-08-16T00:30:01.925Z,101386.34
2018-08-16T00:31:07.388Z,101389.10
2018-08-16T00:32:12.897Z,101385.41
2018-08-16T00:33:18.501Z,101384.05
2018-08-16T00:34:24.494Z,101383.20
2018-08-16T00:35:29.966Z,101385.47
2018-08-16T00:36:35.400Z,101382.25
2018-08-16T00:37:41.763Z,101383.17
2018-08-16T00:38:47.242Z,101384.77
2018-08-16T00:39:52.757Z,101380.05
2018-08-16T00:40:58.358Z,101380.65
2018-08-16T00:42:03.851Z,101383.38
2018-08-16T00:43:09.378Z,101381.84
2018-08-16T00:44:14.953Z,101379.88
2018-08-16T00:45:20.386Z,101383.31
2018-08-16T00:46:25.825Z,101378.05
2018-08-16T00:47:31.870Z,101378.52
2018-08-16T00:48:37.323Z,101378.65
2018-08-16T00:49:42.898Z,101381.70
2018-08-16T00:50:48.368Z,101379.37
2018-08-16T00:51:53.865Z,101374.06
2018-08-16T00:52:59.337Z,101377.62
2018-08-16T00:54:05.062Z,101372.42
2018-08-16T00:55:11.957Z,101365.56
2018-08-16T00:56:17.510Z,101368.53
2018-08-16T00:57:22.960Z,101367.59
2018-08-16T00:58:28.385Z,101367.16
2018-08-16T00:59:33.827Z,101373.25
2018-08-16T01:00:39.350Z,101375.84
2018-08-16T01:01:44.810Z,101362.11
2018-08-16T01:02:50.296Z,101368.83
2018-08-16T01:03:55.849Z,101368.72
2018-08-16T01:05:01.324Z,101362.70
2018-08-16T01:06:06.805Z,101368.02
2018-08-16T01:07:12.362Z,101368.48
2018-08-16T01:08:17.845Z,101367.19
2018-08-16T01:09:23.301Z,101365.13
2018-08-16T01:10:28.753Z,101366.48
2018-08-16T01:11:34.192Z,101364.12
2018-08-16T01:12:39.741Z,101368.48
2018-08-16T01:13:45.194Z,101362.06
2018-08-16T01:14:50.712Z,101367.72
2018-08-16T01:15:56.220Z,101370.31
2018-08-16T01:17:01.727Z,101368.40
2018-08-16T01:18:07.199Z,101359.54
2018-08-16T01:19:12.741Z,101357.84
2018-08-16T01:20:18.280Z,101360.20
2018-08-16T01:21:23.817Z,101362.17
2018-08-16T01:22:29.685Z,101358.35
2018-08-16T01:23:35.175Z,101354.98
2018-08-16T01:24:40.744Z,101352.92
2018-08-16T01:25:46.235Z,101355.05
2018-08-16T01:26:51.692Z,101356.81
2018-08-16T01:27:57.233Z,101350.97
2018-08-16T01:29:02.771Z,101353.16
2018-08-16T01:30:09.913Z,101348.63
2018-08-16T01:31:15.441Z,101347.03
2018-08-16T01:32:20.903Z,101346.04
2018-08-16T01:33:26.410Z,101348.20
2018-08-16T01:34:32.116Z,101343.91
2018-08-16T01:35:37.645Z,101336.59
2018-08-16T01:36:43.132Z,101337.25
2018-08-16T01:37:48.608Z,101337.48
2018-08-16T01:38:54.070Z,101336.13
2018-08-16T01:39:59.495Z,101334.89
2018-08-16T01:41:04.974Z,101330.88
2018-08-16T01:42:10.571Z,101329.81
2018-08-16T01:43:16.049Z,101332.19
2018-08-16T01:44:21.556Z,101329.75
2018-08-16T01:45:27.046Z,101331.17
2018-08-16T01:46:32.522Z,101336.23
2018-08-16T01:47:37.955Z,101328.58
2018-08-16T01:48:43.388Z,101333.59
2018-08-16T01:49:48.929Z,101331.89
2018-08-16T01:50:54.769Z,101334.66
2018-08-16T01:52:00.548Z,101329.36
2018-08-16T01:53:06.029Z,101329.82
2018-08-16T01:54:11.496Z,101331.92
2018-08-16T01:55:17.287Z,101325.69
2018-08-16T01:56:22.696Z,101324.98
2018-08-16T01:57:28.161Z,101324.88
2018-08-16T01:58:33.645Z,101327.75
2018-08-16T01:59:39.132Z,101324.39
2018-08-16T02:00:44.686Z,101325.46
2018-08-16T02:01:50.461Z,101327.47
2018-08-16T02:02:56.003Z,101323.86
2018-08-16T02:04:01.428Z,101320.34
2018-08-16T02:05:07.899Z,101323.45
2018-08-16T02:06:13.461Z,101322.10
2018-08-16T02:07:18.965Z,101318.92
2018-08-16T02:08:24.437Z,101321.45
2018-08-16T02:09:29.865Z,101323.34
2018-08-16T02:10:35.379Z,101318.03
2018-08-16T02:11:40.867Z,101318.50
2018-08-16T02:12:47.059Z,101324.39
2018-08-16T02:13:52.517Z,101323.47
2018-08-16T02:14:58.273Z,101319.09
2018-08-16T02:16:03.747Z,101323.22
2018-08-16T02:17:09.226Z,101327.33
2018-08-16T02:18:14.745Z,101325.29
2018-08-16T02:19:20.464Z,101327.45
2018-08-16T02:20:25.985Z,101324.77
2018-08-16T02:21:31.882Z,101319.86
2018-08-16T02:22:37.377Z,101320.22
2018-08-16T02:23:42.883Z,101328.74
2018-08-16T02:24:48.318Z,101327.81
2018-08-16T02:25:53.862Z,101329.70
2018-08-16T02:26:59.460Z,101328.86
2018-08-16T02:28:05.073Z,101330.59
2018-08-16T02:29:10.760Z,101326.27
2018-08-16T02:30:16.291Z,101319.63
2018-08-16T02:31:21.747Z,101322.16
2018-08-16T02:32:27.410Z,101322.11
2018-08-16T02:33:32.882Z,101327.76
2018-08-16T02:34:38.399Z,101321.86
2018-08-16T02:35:43.893Z,101316.68
2018-08-16T02:36:49.329Z,101323.16
2018-08-16T02:37:54.821Z,101318.91
2018-08-16T02:39:00.253Z,101314.92
2018-08-16T02:40:07.578Z,101317.52
2018-08-16T02:41:13.101Z,101317.14
2018-08-16T02:42:18.570Z,101317.45
2018-08-16T02:43:24.397Z,101309.55
2018-08-16T02:44:29.845Z,101312.97
2018-08-16T02:45:35.268Z,101307.33
2018-08-16T02:46:40.844Z,101307.02
2018-08-16T02:47:46.324Z,101313.59
2018-08-16T02:48:52.107Z,101310.48
2018-08-16T02:49:57.528Z,101306.53
2018-08-16T02:51:02.961Z,101310.14
2018-08-16T02:52:08.429Z,101306.72
2018-08-16T02:53:13.869Z,101308.26
2018-08-16T02:54:19.289Z,101306.44
2018-08-16T02:55:24.768Z,101307.14
2018-08-16T02:56:30.280Z,101307.30
2018-08-16T02:57:35.775Z,101303.72
2018-08-16T02:58:41.303Z,101307.61
2018-08-16T02:59:46.761Z,101301.28
2018-08-16T03:00:52.220Z,101306.91
2018-08-16T03:01:57.864Z,101301.23
2018-08-16T03:03:03.286Z,101296.75
2018-08-16T03:04:08.775Z,101303.60
2018-08-16T03:05:14.372Z,101295.21
2018-08-16T03:06:19.909Z,101293.05
2018-08-16T03:07:25.390Z,101296.35
2018-08-16T03:08:30.856Z,101292.80
2018-08-16T03:09:36.269Z,101293.58
2018-08-16T03:10:41.870Z,101289.04
2018-08-16T03:11:47.379Z,101290.43
2018-08-16T03:12:53.209Z,101283.80
2018-08-16T03:13:58.656Z,101291.72
2018-08-16T03:15:04.414Z,101292.80
2018-08-16T03:16:09.912Z,101289.31
2018-08-16T03:17:15.450Z,101293.14
2018-08-16T03:18:20.962Z,101283.55
2018-08-16T03:19:26.395Z,101291.32
2018-08-16T03:20:31.833Z,101285.62
2018-08-16T03:21:37.309Z,101287.31
2018-08-16T03:22:42.852Z,101279.08
2018-08-16T03:23:48.321Z,101284.51
2018-08-16T03:24:53.814Z,101280.74
2018-08-16T03:25:59.238Z,101279.84
2018-08-16T03:27:04.773Z,101278.83
2018-08-16T03:28:10.229Z,101279.36
2018-08-16T03:29:15.746Z,101277.53
2018-08-16T03:30:21.205Z,101283.86
2018-08-16T03:31:26.631Z,101281.30
2018-08-16T03:32:32.118Z,101277.25
2018-08-16T03:33:37.540Z,101279.36
2018-08-16T03:34:43.154Z,101277.53
2018-08-16T03:35:48.646Z,101278.55
2018-08-16T03:36:54.071Z,101277.13
2018-08-16T03:37:59.691Z,101280.59
2018-08-16T03:39:07.274Z,101270.41
2018-08-16T03:40:12.841Z,101273.70
2018-08-16T03:41:18.329Z,101275.34
2018-08-16T03:42:23.854Z,101270.61
2018-08-16T03:43:29.289Z,101273.98
2018-08-16T03:44:34.676Z,101271.33
2018-08-16T03:45:40.138Z,101272.62
2018-08-16T03:46:45.605Z,101276.76
2018-08-16T03:47:51.005Z,101273.58
2018-08-16T03:48:56.432Z,101274.81
2018-08-16T03:50:01.885Z,101272.99
2018-08-16T03:51:07.841Z,101267.94
2018-08-16T03:52:13.321Z,101274.09
2018-08-16T03:53:18.780Z,101273.20
2018-08-16T03:54:30.877Z,101276.63
2018-08-16T03:55:36.350Z,101271.97
2018-08-16T03:56:41.845Z,101276.17
2018-08-16T03:57:47.511Z,101280.05
2018-08-16T03:58:53.003Z,101278.70
2018-08-16T03:59:58.523Z,101276.88
2018-08-16T04:01:03.977Z,101278.94
2018-08-16T04:02:09.493Z,101279.95
2018-08-16T04:03:15.006Z,101281.77
2018-08-16T04:04:20.449Z,101281.45
2018-08-16T04:05:25.964Z,101280.98
2018-08-16T04:06:31.421Z,101283.69
2018-08-16T04:07:36.919Z,101289.16
2018-08-16T04:08:42.468Z,101284.41
2018-08-16T04:09:47.889Z,101282.94
2018-08-16T04:10:53.382Z,101287.80
2018-08-16T04:11:58.859Z,101281.56
2018-08-16T04:13:04.352Z,101278.98
2018-08-16T04:14:09.860Z,101280.91
2018-08-16T04:15:15.320Z,101281.20
2018-08-16T04:16:20.749Z,101281.20
2018-08-16T04:17:30.777Z,101283.65
2018-08-16T04:18:36.308Z,101285.95
2018-08-16T04:19:41.733Z,101283.96
2018-08-16T04:20:47.194Z,101286.80
2018-08-16T04:21:52.682Z,101284.56
2018-08-16T04:22:58.087Z,101283.65
2018-08-16T04:24:03.633Z,101281.70
2018-08-16T04:25:09.092Z,101281.70
2018-08-16T04:26:14.584Z,101280.14
2018-08-16T04:27:20.041Z,101274.95
2018-08-16T04:28:25.478Z,101277.02
2018-08-16T04:29:30.919Z,101277.31
2018-08-16T04:30:36.377Z,101281.11
2018-08-16T04:31:42.034Z,101274.05
2018-08-16T04:32:47.536Z,101279.67
2018-08-16T04:33:53.116Z,101278.14
2018-08-16T04:34:58.970Z,101280.97
2018-08-16T04:36:04.667Z,101279.25
2018-08-16T04:37:10.146Z,101283.44
2018-08-16T04:38:16.065Z,101284.54
2018-08-16T04:39:21.724Z,101286.61
2018-08-16T04:40:27.221Z,101286.03
2018-08-16T04:41:32.647Z,101287.65
2018-08-16T04:42:38.105Z,101283.74
2018-08-16T04:43:43.663Z,101286.67
2018-08-16T04:44:49.139Z,101290.23
2018-08-16T04:45:54.588Z,101291.07
2018-08-16T04:47:00.116Z,101285.31
2018-08-16T04:48:06.255Z,101292.05
2018-08-16T04:49:11.788Z,101290.97
2018-08-16T04:50:17.284Z,101290.31
2018-08-16T04:51:22.796Z,101290.97
2018-08-16T04:52:28.230Z,101282.55
2018-08-16T04:53:33.653Z,101285.66
2018-08-16T04:54:39.145Z,101293.22
2018-08-16T04:55:44.662Z,101292.12
2018-08-16T04:56:50.230Z,101295.29
2018-08-16T04:57:55.700Z,101295.11
2018-08-16T04:59:01.151Z,101294.07
2018-08-16T05:00:09.337Z,101294.90
2018-08-16T05:01:14.800Z,101294.81
2018-08-16T05:02:20.370Z,101299.53
2018-08-16T05:03:25.872Z,101301.84
2018-08-16T05:04:31.386Z,101299.45
2018-08-16T05:05:36.857Z,101297.89
2018-08-16T05:06:42.308Z,101298.37
2018-08-16T05:07:47.840Z,101302.79
2018-08-16T05:08:53.288Z,101305.45
2018-08-16T05:09:58.740Z,101302.92
2018-08-16T05:11:04.286Z,101304.52
2018-08-16T05:12:09.739Z,101303.11
2018-08-16T05:13:15.237Z,101299.98
2018-08-16T05:14:20.711Z,101301.04
2018-08-16T05:15:26.200Z,101302.18
2018-08-16T05:16:31.678Z,101302.46
2018-08-16T05:17:37.503Z,101295.64
2018-08-16T05:18:43.012Z,101301.53
2018-08-16T05:19:48.429Z,101293.23
2018-08-16T05:20:53.852Z,101292.34
2018-08-16T05:21:59.280Z,101294.41
2018-08-16T05:23:04.906Z,101296.75
2018-08-16T05:24:10.373Z,101300.30
2018-08-16T05:25:15.950Z,101295.23
2018-08-16T05:26:21.378Z,101296.23
2018-08-16T05:27:26.790Z,101295.18
2018-08-16T05:28:32.281Z,101301.47
2018-08-16T05:29:37.745Z,101297.52
2018-08-16T05:30:43.270Z,101297.34
2018-08-16T05:31:48.749Z,101297.70
2018-08-16T05:32:54.149Z,101294.28
2018-08-16T05:33:59.673Z,101297.77
2018-08-16T05:35:05.801Z,101302.89
2018-08-16T05:36:12.322Z,101297.13
2018-08-16T05:37:18.236Z,101298.23
2018-08-16T05:38:23.682Z,101291.69
2018-08-16T05:39:29.102Z,101294.99
2018-08-16T05:40:34.577Z,101297.52
2018-08-16T05:41:40.073Z,101297.59
2018-08-16T05:42:45.536Z,101298.59
2018-08-16T05:43:50.968Z,101288.94
2018-08-16T05:44:56.382Z,101296.83
2018-08-16T05:46:01.929Z,101294.95
2018-08-16T05:47:07.679Z,101295.05
2018-08-16T05:48:13.161Z,101294.83
2018-08-16T05:49:18.628Z,101291.52
2018-08-16T05:50:24.069Z,101290.41
2018-08-16T05:51:29.638Z,101288.59
2018-08-16T05:52:35.053Z,101290.22
2018-08-16T05:53:40.473Z,101288.41
2018-08-16T05:54:45.998Z,101284.86
2018-08-16T05:55:51.489Z,101287.30
2018-08-16T05:56:56.917Z,101293.41
2018-08-16T05:58:02.397Z,101289.10
2018-08-16T05:59:07.876Z,101288.11
2018-08-16T06:00:14.634Z,101295.23
2018-08-16T06:01:20.101Z,101284.20
2018-08-16T06:02:25.815Z,101282.72
2018-08-16T06:03:31.742Z,101279.92
2018-08-16T06:04:37.201Z,101282.18
2018-08-16T06:05:42.774Z,101276.44
2018-08-16T06:06:48.276Z,101277.50
2018-08-16T06:07:53.770Z,101274.24
2018-08-16T06:08:59.229Z,101273.34
2018-08-16T06:10:05.337Z,101272.91
2018-08-16T06:11:11.236Z,101274.44
2018-08-16T06:12:16.753Z,101274.73
2018-08-16T06:13:22.198Z,101264.20
2018-08-16T06:14:27.621Z,101274.41
2018-08-16T06:15:33.563Z,101270.59
2018-08-16T06:16:39.445Z,101271.08
2018-08-16T06:17:44.924Z,101275.70
2018-08-16T06:18:50.340Z,101272.59
2018-08-16T06:19:56.161Z,101274.75
2018-08-16T06:21:01.623Z,101277.50
2018-08-16T06:22:07.205Z,101270.63
2018-08-16T06:23:12.682Z,101272.95
2018-08-16T06:24:18.209Z,101273.40
2018-08-16T06:25:23.685Z,101267.91
2018-08-16T06:26:29.157Z,101269.66
2018-08-16T06:27:34.727Z,101273.98
2018-08-16T06:28:40.193Z,101274.72
2018-08-16T06:29:45.997Z,101273.74
2018-08-16T06:30:51.507Z,101279.19
2018-08-16T06:31:56.948Z,101273.88
2018-08-16T06:33:02.436Z,101268.69
2018-08-16T06:34:07.965Z,101276.05
2018-08-16T06:35:13.557Z,101270.38
2018-08-16T06:36:19.081Z,101271.97
2018-08-16T06:37:24.511Z,101273.27
2018-08-16T06:38:29.970Z,101276.56
2018-08-16T06:39:35.419Z,101273.87
2018-08-16T06:40:41.024Z,101267.89
2018-08-16T06:41:46.481Z,101270.19
2018-08-16T06:42:51.940Z,101268.13
2018-08-16T06:43:57.404Z,101271.55
2018-08-16T06:45:02.869Z,101269.84
2018-08-16T06:46:08.606Z,101267.30
2018-08-16T06:47:17.209Z,101265.94
2018-08-16T06:48:22.918Z,101265.59
2018-08-16T06:49:28.394Z,101263.62
2018-08-16T06:50:33.848Z,101264.77
2018-08-16T06:51:39.381Z,101265.84
2018-08-16T06:52:45.003Z,101265.23
2018-08-16T06:53:50.716Z,101260.31
2018-08-16T06:54:56.222Z,101263.00
2018-08-16T06:56:01.775Z,101257.92
2018-08-16T06:57:07.236Z,101258.72
2018-08-16T06:58:12.772Z,101260.14
2018-08-16T06:59:18.273Z,101259.52
2018-08-16T07:00:23.714Z,101264.84
2018-08-16T07:01:29.256Z,101261.53
2018-08-16T07:02:34.699Z,101262.41
2018-08-16T07:03:40.184Z,101259.45
2018-08-16T07:04:45.667Z,101254.64
2018-08-16T07:05:51.106Z,101251.05
2018-08-16T07:06:56.622Z,101253.92
2018-08-16T07:08:02.062Z,101254.16
2018-08-16T07:09:11.561Z,101258.53
2018-08-16T07:10:17.161Z,101256.35
2018-08-16T07:11:23.760Z,101253.75
2018-08-16T07:12:29.913Z,101260.48
2018-08-16T07:13:35.955Z,101257.52
2018-08-16T07:14:41.538Z,101259.39
2018-08-16T07:15:46.974Z,101249.73
2018-08-16T07:16:54.584Z,101253.00
2018-08-16T07:18:00.066Z,101249.43
2018-08-16T07:19:05.584Z,101251.95
2018-08-16T07:20:11.412Z,101252.45
2018-08-16T07:21:16.903Z,101252.26
2018-08-16T07:22:23.369Z,101252.67
2018-08-16T07:23:28.780Z,101253.39
2018-08-16T07:24:35.336Z,101250.50
2018-08-16T07:25:40.834Z,101245.02
2018-08-16T07:26:46.269Z,101241.22
2018-08-16T07:27:52.157Z,101247.09
2018-08-16T07:28:57.601Z,101244.47
2018-08-16T07:30:03.439Z,101246.27
2018-08-16T07:31:10.170Z,101247.56
2018-08-16T07:32:15.682Z,101247.19
2018-08-16T07:33:21.166Z,101241.81
2018-08-16T07:34:27.033Z,101240.45
2018-08-16T07:35:32.565Z,101242.97
2018-08-16T07:36:38.047Z,101249.61
2018-08-16T07:37:43.906Z,101246.28
2018-08-16T07:38:49.449Z,101245.66
2018-08-16T07:39:54.897Z,101242.32
2018-08-16T07:41:00.372Z,101246.67
2018-08-16T07:42:05.865Z,101243.99
2018-08-16T07:43:11.346Z,101242.34
2018-08-16T07:44:16.856Z,101235.53
2018-08-16T07:45:22.307Z,101239.62
2018-08-16T07:46:28.190Z,101238.70
2018-08-16T07:47:33.619Z,101237.36
2018-08-16T07:48:39.745Z,101232.27
2018-08-16T07:49:45.327Z,101237.64
2018-08-16T07:50:50.778Z,101227.03
2018-08-16T07:51:56.292Z,101229.95
2018-08-16T07:53:01.753Z,101232.27
2018-08-16T07:54:07.841Z,101229.19
2018-08-16T07:55:13.317Z,101235.27
2018-08-16T07:56:18.782Z,101236.00
2018-08-16T07:57:24.237Z,101230.49
2018-08-16T07:58:29.806Z,101236.75
2018-08-16T07:59:35.476Z,101236.23
2018-08-16T08:00:40.957Z,101242.75
2018-08-16T08:01:47.098Z,101244.62
2018-08-16T08:02:52.536Z,101233.54
2018-08-16T08:03:58.078Z,101240.33
2018-08-16T08:05:03.535Z,101238.28
2018-08-16T08:06:09.206Z,101231.58
2018-08-16T08:07:14.682Z,101231.09
2018-08-16T08:08:20.170Z,101234.74
2018-08-16T08:09:26.140Z,101235.74
2018-08-16T08:10:31.588Z,101231.99
2018-08-16T08:11:37.449Z,101229.11
2018-08-16T08:12:44.705Z,101234.96
2018-08-16T08:13:50.222Z,101221.34
2018-08-16T08:14:55.676Z,101234.13
2018-08-16T08:16:01.185Z,101227.50
2018-08-16T08:17:07.440Z,101222.92
2018-08-16T08:18:12.933Z,101229.33
2018-08-16T08:19:19.033Z,101236.67
2018-08-16T08:20:24.497Z,101230.50
2018-08-16T08:21:29.972Z,101231.02
2018-08-16T08:22:35.553Z,101231.25
2018-08-16T08:23:41.753Z,101229.08
2018-08-16T08:24:47.186Z,101230.41
2018-08-16T08:25:52.640Z,101232.34
2018-08-16T08:26:58.137Z,101234.69
2018-08-16T08:28:03.592Z,101235.36
2018-08-16T08:29:09.293Z,101233.92
2018-08-16T08:30:20.698Z,101233.61
2018-08-16T08:31:26.517Z,101234.53
2018-08-16T08:32:32.014Z,101224.08
2018-08-16T08:33:37.452Z,101223.20
2018-08-16T08:34:43.117Z,101224.45
2018-08-16T08:37:03.246Z,101227.31
2018-08-16T08:38:15.506Z,101224.04
2018-08-16T08:39:21.782Z,101223.46
2018-08-16T08:40:27.277Z,101225.73
2018-08-16T08:41:32.920Z,101213.84
2018-08-16T08:42:38.387Z,101212.91
2018-08-16T08:44:00.705Z,101211.42
2018-08-16T08:45:07.385Z,101207.44
2018-08-16T08:46:12.894Z,101210.33
2018-08-16T08:47:18.417Z,101213.77
2018-08-16T08:48:23.918Z,101210.80
2018-08-16T08:49:29.334Z,101207.14
2018-08-16T08:50:35.735Z,101209.56
2018-08-16T08:51:41.215Z,101201.92
2018-08-16T08:52:46.661Z,101204.16
2018-08-16T08:54:19.461Z,101207.85
2018-08-16T08:55:41.661Z,101202.13
2018-08-16T08:57:03.762Z,101199.20
2018-08-16T08:58:26.165Z,101206.15
2018-08-16T08:59:31.702Z,101204.28
2018-08-16T09:00:37.377Z,101206.34
2018-08-16T09:01:45.693Z,101203.55
2018-08-16T09:02:51.200Z,101204.57
2018-08-16T09:03:56.950Z,101210.19
2018-08-16T09:05:02.432Z,101207.16
2018-08-16T09:06:08.320Z,101210.18
2018-08-16T09:07:16.830Z,101203.86
2018-08-16T09:08:23.329Z,101214.95
2018-08-16T09:09:29.178Z,101210.18
2018-08-16T09:10:58.665Z,101207.78
2018-08-16T09:12:20.981Z,101208.18
2018-08-16T09:13:43.602Z,101206.17
2018-08-16T09:15:05.767Z,101202.83
2018-08-16T09:16:23.481Z,101200.20
2018-08-16T09:17:28.941Z,101198.80
2018-08-16T09:18:34.383Z,101202.73
2018-08-16T09:19:39.937Z,101201.30
2018-08-16T09:20:45.418Z,101197.61
2018-08-16T09:21:52.702Z,101198.21
2018-08-16T09:23:00.211Z,101196.58
2018-08-16T09:24:05.802Z,101206.04
2018-08-16T09:25:11.250Z,101204.45
2018-08-16T09:26:22.041Z,101205.89
2018-08-16T09:27:27.860Z,101205.11
2018-08-16T09:28:33.277Z,101203.80
2018-08-16T09:30:23.848Z,101208.51
2018-08-16T09:31:46.467Z,101205.48
2018-08-16T09:33:08.739Z,101210.45
2018-08-16T09:34:23.898Z,101200.78
2018-08-16T09:35:31.461Z,101199.08
2018-08-16T09:36:37.012Z,101206.35
2018-08-16T09:37:42.529Z,101204.15
2018-08-16T09:38:48.091Z,101195.48
2018-08-16T09:39:53.691Z,101205.72
2018-08-16T09:40:59.115Z,101198.02
2018-08-16T09:42:04.583Z,101198.63
2018-08-16T09:43:10.036Z,101195.17
2018-08-16T09:44:15.432Z,101197.38
2018-08-16T09:45:38.168Z,101203.00
2018-08-16T09:47:05.398Z,101191.66
2018-08-16T09:48:27.409Z,101193.92
2018-08-16T09:49:38.982Z,101193.81
2018-08-16T09:50:44.446Z,101188.80
2018-08-16T09:51:49.944Z,101192.14
2018-08-16T09:52:55.384Z,101189.99
2018-08-16T09:54:00.838Z,101190.48
2018-08-16T09:55:06.733Z,101188.08
2018-08-16T09:56:12.720Z,101189.74
2018-08-16T09:57:18.541Z,101183.78
2018-08-16T09:58:23.965Z,101192.68
2018-08-16T09:59:29.517Z,101190.00
2018-08-16T10:00:40.070Z,101193.67
2018-08-16T10:01:45.743Z,101187.87
2018-08-16T10:02:51.256Z,101185.44
2018-08-16T10:03:56.769Z,101186.31
2018-08-16T10:05:02.186Z,101188.23
2018-08-16T10:06:07.597Z,101190.77
2018-08-16T10:07:13.662Z,101185.39
2018-08-16T10:08:19.057Z,101192.92
2018-08-16T10:09:26.523Z,101185.95
2018-08-16T10:10:33.449Z,101183.80
2018-08-16T10:11:38.976Z,101178.45
2018-08-16T10:12:45.403Z,101183.85
2018-08-16T10:13:50.851Z,101195.30
2018-08-16T10:14:56.296Z,101187.24
2018-08-16T10:16:01.679Z,101189.77
2018-08-16T10:17:07.192Z,101190.38
2018-08-16T10:18:12.681Z,101188.02
2018-08-16T10:19:18.409Z,101191.20
2018-08-16T10:20:24.036Z,101185.84
2018-08-16T10:21:29.503Z,101182.02
2018-08-16T10:22:35.042Z,101187.14
2018-08-16T10:23:40.437Z,101182.61
2018-08-16T10:24:46.686Z,101182.50
2018-08-16T10:25:52.482Z,101175.01
2018-08-16T10:26:57.953Z,101176.80
2018-08-16T10:28:03.398Z,101177.03
2018-08-16T10:29:09.630Z,101181.08
2018-08-16T10:30:15.115Z,101183.13
2018-08-16T10:31:20.949Z,101171.82
2018-08-16T10:32:26.452Z,101174.67
2018-08-16T10:33:31.989Z,101170.02
2018-08-16T10:34:37.398Z,101170.50
2018-08-16T10:35:43.183Z,101170.00
2018-08-16T10:36:48.769Z,101170.50
2018-08-16T10:37:54.204Z,101164.88
2018-08-16T10:38:59.817Z,101173.09
2018-08-16T10:40:05.458Z,101172.47
2018-08-16T10:41:11.205Z,101172.94
2018-08-16T10:42:16.714Z,101172.70
2018-08-16T10:43:22.173Z,101170.20
2018-08-16T10:44:27.634Z,101181.27
2018-08-16T10:45:33.417Z,101174.33
2018-08-16T10:46:38.945Z,101170.75
2018-08-16T10:47:44.461Z,101168.00
2018-08-16T10:48:49.904Z,101167.27
2018-08-16T10:49:55.336Z,101180.09
2018-08-16T10:51:01.959Z,101179.00
2018-08-16T10:52:07.608Z,101172.63
2018-08-16T10:53:13.182Z,101175.98
2018-08-16T10:54:19.688Z,101173.60
2018-08-16T10:55:25.111Z,101176.95
2018-08-16T10:56:30.622Z,101173.38
2018-08-16T10:57:36.066Z,101170.14
2018-08-16T10:58:41.692Z,101169.08
2018-08-16T10:59:48.341Z,101170.91
2018-08-16T11:00:53.962Z,101171.64
2018-08-16T11:01:59.402Z,101177.27
2018-08-16T11:03:05.142Z,101175.70
2018-08-16T11:04:11.568Z,101164.94
2018-08-16T11:05:17.282Z,101169.37
2018-08-16T11:06:22.844Z,101164.57
2018-08-16T11:07:28.357Z,101166.94
2018-08-16T11:08:33.796Z,101164.08
2018-08-16T11:09:39.205Z,101161.47
2018-08-16T11:10:44.645Z,101161.70
2018-08-16T11:11:50.161Z,101162.27
2018-08-16T11:12:56.062Z,101166.05
2018-08-16T11:14:01.566Z,101167.24
2018-08-16T11:15:07.591Z,101162.30
2018-08-16T11:16:13.045Z,101170.48
2018-08-16T11:17:18.497Z,101163.11
2018-08-16T11:18:23.888Z,101167.75
2018-08-16T11:19:29.306Z,101165.17
2018-08-16T11:20:35.174Z,101170.89
2018-08-16T11:21:41.068Z,101162.17
2018-08-16T11:22:46.591Z,101166.03
2018-08-16T11:23:52.042Z,101163.14
2018-08-16T11:24:58.288Z,101168.75
2018-08-16T11:26:04.298Z,101159.21
2018-08-16T11:27:09.729Z,101155.14
2018-08-16T11:28:15.189Z,101163.08
2018-08-16T11:29:20.703Z,101154.06
2018-08-16T11:30:26.181Z,101154.97
2018-08-16T11:31:31.573Z,101146.38
2018-08-16T11:32:37.092Z,101151.43
2018-08-16T11:33:42.752Z,101151.39
2018-08-16T11:34:48.288Z,101147.94
2018-08-16T11:35:54.262Z,101149.20
2018-08-16T11:36:59.656Z,101142.77
2018-08-16T11:39:18.345Z,101147.36
2018-08-16T11:40:23.757Z,101148.17
2018-08-16T11:41:29.464Z,101156.00
2018-08-16T11:42:35.102Z,101150.81
2018-08-16T11:43:41.034Z,101150.68
2018-08-16T11:44:46.556Z,101148.87
2018-08-16T11:45:52.026Z,101148.69
2018-08-16T11:46:57.539Z,101151.09
2018-08-16T11:48:02.972Z,101145.06
2018-08-16T11:49:09.233Z,101145.16
2018-08-16T11:50:14.818Z,101144.72
2018-08-16T11:51:20.253Z,101149.16
2018-08-16T11:52:26.008Z,101149.60
2018-08-16T11:53:31.445Z,101140.66
2018-08-16T11:54:36.870Z,101143.27
2018-08-16T11:55:44.610Z,101134.92
2018-08-16T11:56:50.236Z,101139.38
2018-08-16T11:57:55.721Z,101133.00
2018-08-16T11:59:01.229Z,101140.59
2018-08-16T12:00:07.291Z,101132.88
2018-08-16T12:01:13.628Z,101142.67
2018-08-16T12:02:19.333Z,101148.11
2018-08-16T12:03:24.789Z,101144.36
2018-08-16T12:04:30.778Z,101144.91
2018-08-16T12:05:36.200Z,101150.17
2018-08-16T12:06:41.780Z,101145.23
2018-08-16T12:07:47.238Z,101148.30
2018-08-16T12:08:52.736Z,101144.59
2018-08-16T12:09:58.272Z,101143.52
2018-08-16T12:11:03.757Z,101147.75
2018-08-16T12:12:09.273Z,101151.44
2018-08-16T12:13:15.441Z,101150.98
2018-08-16T12:14:21.131Z,101150.49
2018-08-16T12:15:26.593Z,101147.58
2018-08-16T12:16:32.021Z,101141.63
2018-08-16T12:17:38.182Z,101138.62
2018-08-16T12:18:44.200Z,101145.63
2018-08-16T12:19:49.666Z,101145.91
2018-08-16T12:20:55.105Z,101143.84
2018-08-16T12:22:00.604Z,101153.53
2018-08-16T12:23:06.128Z,101153.53
2018-08-16T12:24:12.210Z,101150.97
2018-08-16T12:25:17.748Z,101147.36
2018-08-16T12:26:23.160Z,101146.41
2018-08-16T12:27:28.632Z,101145.21
2018-08-16T12:28:34.056Z,101140.89
2018-08-16T12:29:39.898Z,101141.08
2018-08-16T12:30:45.454Z,101146.17
2018-08-16T12:31:50.858Z,101152.53
2018-08-16T12:32:56.278Z,101156.27
2018-08-16T12:34:01.679Z,101155.11
2018-08-16T12:35:08.980Z,101149.78
2018-08-16T12:36:14.565Z,101157.89
2018-08-16T12:37:20.117Z,101157.89